Terminal Aerodrome Forecast
Issued by NWS Wakefield, VA

Home | Current Version | Previous Version | Text Only | Print | Product List | Glossary On
Versions: 1 2 3 4 5 6 7 8 9 10 11 12 13 14 15 16
688
FTUS41 KAKQ 162340
TAFSBY
TAF
KSBY 162340Z 1700/1724 14003KT P6SM SCT025 OVC035
     FM170300 15003KT P6SM OVC025
     FM170900 00000KT 6SM -DZ OVC012
     FM171500 18005KT 5SM -RA BR SCT005 OVC012
     FM171700 19006KT 4SM -RA BR OVC005=

USA.gov is the U.S. government's official web portal to all federal, state and local government web resources and services.